Elmendorf Air Force Base, AK (99506)

3:36 AM AKST on February 06, 2016 (GMT -0900)
KL7AIR | | Change Station
CLOSE
Current Station
Personal Weather Station
Location: Elmendorf AFB, AK
Elevation: 130 ft
Nearby Weather Stations

Elev 130 ft 61.27 °N, 149.79 °W | Updated 0 second ago

Clear
Clear
25.9 °F
Feels Like 19 °F
N
6.1
Wind Variable Wind from North
Gusts 10.7 mph

Today
High -- | Low -- °F
--% Chance of Precip.
Yesterday
High -- | Low -- °F
Precip. -- in
Pressure 29.51 in
Visibility 10.0 miles
Clouds Clear
Windchill 19 °F
Dew Point 18 °F
Humidity 73%
Rainfall 0.00 in
Snow Depth Not available.
9:07 AM 5:19 PM
Waning Crescent, 6% visible
METAR PAED 061058Z AUTO 00000KT 10SM CLR M04/M05 A2951 RMK AO2 SLP991 T10371050 VISNO RWY24 CHINO RWY24 $
Pressure 29.51 in
Visibility 10.0 miles
Clouds Clear
Windchill 19 °F
Dew Point 18 °F
Humidity 73%
Rainfall 0.00 in
Snow Depth Not available.
9:07 AM 5:19 PM
Waning Crescent, 6% visible
METAR PAED 061058Z AUTO 00000KT 10SM CLR M04/M05 A2951 RMK AO2 SLP991 T10371050 VISNO RWY24 CHINO RWY24 $

10-Day Weather Forecast

Almanac

Astronomy

Feb. 06, 2016 Rise Set
Actual Time
Civil Twilight
Nautical Twilight
Astronomical Twilight
Moon
Length of Visible Light
Length of Day
Tomorrow will be .
, % of the Moon is Illuminated

Today's Extremes

State Highs State Lows

Community

WunderPhotos

Upload Photos

1,890,950 photos uploaded!

WunderBlog® & News

Nearby

Air Quality

  Air Quality AQ Index Pollutant
Not available.

Snow Depth

Station Depth Elevation

Earthquake Activity

City Distance Mag. Time & Date
Minimum magnitude displayed is 2.5.

Coastal Water Temperatures

Place Temperature

Stations

Nearby Weather Stations

Station Location Temp. Windchill Dew Point Humidity Wind Precip. Elev Updated Type
                   

Watches & Warnings

There are currently no watches in effect.